Time;durP1;ratioP1;P1;durP2;ratioP2;P2;SDS_P1;SDS_P2;PMS_P1;PMS_P2;Temp;Humidity;BMP_temperature;BMP_pressure;BME280_temperature;BME280_humidity;BME280_pressure;Samples;Min_cycle;Max_cycle;Signal;HPM_P1;HPM_P2
2023/03/06 00:01:19;;;;;;;7.17;4.13;;;0.50;90.40;;;;;;4916336;29;20269;-72
2023/03/06 00:03:48;;;;;;;7.57;3.00;;;0.60;90.40;;;;;;4916556;29;20206;-75
2023/03/06 00:06:18;;;;;;;4.90;3.03;;;0.50;90.40;;;;;;4916386;29;20203;-72
2023/03/06 00:08:47;;;;;;;4.37;2.93;;;0.60;90.30;;;;;;4916133;29;20337;-72
2023/03/06 00:11:16;;;;;;;4.10;2.80;;;0.50;90.90;;;;;;4916096;29;20198;-71
2023/03/06 00:13:45;;;;;;;7.73;4.10;;;0.60;90.40;;;;;;4916009;29;20237;-72
2023/03/06 00:16:14;;;;;;;6.80;3.70;;;0.60;90.50;;;;;;4916028;29;20231;-74
2023/03/06 00:18:46;;;;;;;6.80;3.90;;;0.60;90.00;;;;;;4916008;29;20206;-72
2023/03/06 00:21:15;;;;;;;8.10;3.63;;;0.60;90.20;;;;;;4915680;29;20277;-71
2023/03/06 00:23:44;;;;;;;7.77;3.23;;;0.60;90.20;;;;;;4915652;29;20255;-74
2023/03/06 00:26:13;;;;;;;5.50;3.47;;;0.60;90.10;;;;;;4915797;29;20199;-72
2023/03/06 00:28:42;;;;;;;6.20;2.83;;;0.60;90.10;;;;;;4914395;29;20202;-73
2023/03/06 00:31:11;;;;;;;5.67;3.47;;;0.50;90.20;;;;;;4915704;29;20218;-74
2023/03/06 00:33:42;;;;;;;5.17;3.43;;;0.50;90.10;;;;;;4915752;29;20288;-72
2023/03/06 00:36:12;;;;;;;5.83;3.50;;;0.50;90.50;;;;;;4915581;29;20335;-72
2023/03/06 00:38:41;;;;;;;5.83;2.70;;;0.50;90.80;;;;;;4914361;29;20688;-74
2023/03/06 00:41:11;;;;;;;5.27;3.20;;;0.40;91.30;;;;;;4914273;29;20669;-73
2023/03/06 00:43:40;;;;;;;5.00;3.30;;;0.30;91.50;;;;;;4898823;29;20214;-74
2023/03/06 00:46:09;;;;;;;8.70;3.57;;;0.40;91.60;;;;;;4915631;29;20238;-72
2023/03/06 00:48:40;;;;;;;7.10;2.50;;;0.40;91.60;;;;;;4916010;29;20210;-70
2023/03/06 00:51:08;;;;;;;6.77;3.17;;;0.30;92.00;;;;;;4915479;29;20258;-72
2023/03/06 00:53:42;;;;;;;2.80;2.60;;;0.30;92.20;;;;;;4915271;29;20218;-69
2023/03/06 00:56:11;;;;;;;7.50;3.20;;;0.30;92.30;;;;;;4898534;29;20207;-72
2023/03/06 00:58:40;;;;;;;5.97;3.17;;;0.30;92.10;;;;;;4915416;29;20282;-70
2023/03/06 01:01:09;;;;;;;3.90;2.73;;;0.30;92.10;;;;;;4915255;29;20218;-72
2023/03/06 01:03:37;;;;;;;4.07;3.17;;;0.30;92.20;;;;;;4915374;29;20617;-73
2023/03/06 01:06:07;;;;;;;4.20;2.80;;;0.30;92.70;;;;;;4915366;29;20677;-74
2023/03/06 01:08:36;;;;;;;3.70;2.70;;;0.30;92.60;;;;;;4898305;29;20230;-73
2023/03/06 01:11:06;;;;;;;3.33;2.60;;;0.40;92.20;;;;;;4898309;29;20598;-70
2023/03/06 01:13:35;;;;;;;5.57;2.83;;;0.30;92.50;;;;;;4915329;29;20195;-73
2023/03/06 01:16:09;;;;;;;5.80;2.70;;;0.30;93.00;;;;;;4913976;29;20273;-72
2023/03/06 01:18:38;;;;;;;4.60;3.33;;;0.20;93.50;;;;;;4915241;29;20198;-70
2023/03/06 01:21:08;;;;;;;7.67;2.97;;;0.30;93.00;;;;;;4915043;29;20198;-73
2023/03/06 01:23:37;;;;;;;2.93;2.50;;;0.30;93.40;;;;;;4897944;29;20772;-73
2023/03/06 01:26:08;;;;;;;3.33;2.70;;;0.20;93.60;;;;;;4898252;29;20226;-74
2023/03/06 01:28:38;;;;;;;3.07;2.77;;;0.30;93.80;;;;;;4915196;29;20692;-74
2023/03/06 01:31:07;;;;;;;6.80;2.97;;;0.20;94.10;;;;;;4915125;29;20199;-73
2023/03/06 01:33:36;;;;;;;9.57;3.03;;;0.10;94.40;;;;;;4913904;29;20214;-74
2023/03/06 01:36:07;;;;;;;4.67;2.77;;;0.10;94.30;;;;;;4913706;29;20215;-71
2023/03/06 01:38:36;;;;;;;4.47;2.40;;;0.20;94.30;;;;;;4915324;29;20277;-74
2023/03/06 01:41:07;;;;;;;5.13;2.90;;;0.20;94.30;;;;;;4901266;29;20206;-71
2023/03/06 01:43:38;;;;;;;5.17;3.13;;;0.20;94.30;;;;;;4917411;29;20579;-73
2023/03/06 01:46:40;;;;;;;5.10;2.93;;;0.20;94.10;;;;;;4918646;29;20217;-74
2023/03/06 01:49:16;;;;;;;4.57;2.80;;;0.30;93.70;;;;;;4918527;29;20245;-72
2023/03/06 01:51:49;;;;;;;5.23;3.23;;;0.30;93.80;;;;;;4901592;29;20602;-73
2023/03/06 01:54:23;;;;;;;4.27;3.23;;;0.30;93.70;;;;;;4918502;29;20198;-72
2023/03/06 01:56:57;;;;;;;5.90;2.87;;;0.30;93.40;;;;;;4918530;29;20237;-74
2023/03/06 01:59:27;;;;;;;3.23;2.60;;;0.30;93.40;;;;;;4901486;29;20249;-71
2023/03/06 02:02:00;;;;;;;6.67;2.73;;;0.20;93.50;;;;;;4901258;29;20239;-74
2023/03/06 02:04:29;;;;;;;5.47;2.30;;;0.10;94.20;;;;;;4918246;29;20275;-71
2023/03/06 02:07:00;;;;;;;4.43;2.70;;;0.10;94.40;;;;;;4918165;29;20203;-71
2023/03/06 02:09:31;;;;;;;5.47;3.00;;;0.10;94.30;;;;;;4916945;29;20254;-72
2023/03/06 02:12:03;;;;;;;3.77;2.80;;;0.10;94.20;;;;;;4918251;29;20293;-73
2023/03/06 02:14:31;;;;;;;4.93;2.80;;;0.10;94.40;;;;;;4901113;29;20217;-72
2023/03/06 02:17:00;;;;;;;5.43;3.07;;;0.10;94.30;;;;;;4918051;29;20673;-71
2023/03/06 02:19:36;;;;;;;2.97;2.50;;;0.10;94.40;;;;;;4901043;29;20234;-71
2023/03/06 02:22:06;;;;;;;5.03;2.70;;;0.10;94.40;;;;;;4917786;29;20301;-72
2023/03/06 02:24:40;;;;;;;7.63;3.07;;;0.10;94.30;;;;;;4900734;29;20747;-72
2023/03/06 02:27:13;;;;;;;4.30;2.70;;;0.10;94.50;;;;;;4900861;29;20206;-73
2023/03/06 02:29:43;;;;;;;4.50;2.60;;;0.10;94.60;;;;;;4917832;29;20550;-70
2023/03/06 02:32:12;;;;;;;4.20;2.67;;;0.20;94.50;;;;;;4912351;29;20510;-72
2023/03/06 02:34:59;;;;;;;6.37;2.67;;;0.30;94.10;;;;;;4898919;29;20195;-71
2023/03/06 02:37:29;;;;;;;2.80;2.50;;;0.20;94.20;;;;;;4900014;29;20258;-73
2023/03/06 02:40:08;;;;;;;2.47;2.20;;;0.20;94.40;;;;;;4900638;29;20609;-72
2023/03/06 02:42:38;;;;;;;3.77;2.33;;;0.10;94.80;;;;;;4917487;29;20225;-72
2023/03/06 02:45:11;;;;;;;3.60;2.60;;;0.10;95.10;;;;;;4917492;29;20195;-71
2023/03/06 02:47:41;;;;;;;6.37;2.57;;;0.10;95.00;;;;;;4900399;29;20253;-72
2023/03/06 02:50:11;;;;;;;3.90;2.60;;;0.20;94.70;;;;;;4916618;29;20311;-72
2023/03/06 02:52:40;;;;;;;3.47;2.43;;;0.20;94.50;;;;;;4881432;29;20211;-74
2023/03/06 02:55:09;;;;;;;7.63;2.60;;;0.20;94.60;;;;;;4896991;29;20682;-72
2023/03/06 02:57:40;;;;;;;4.90;2.57;;;0.10;94.70;;;;;;4898434;29;20243;-74
2023/03/06 03:00:11;;;;;;;5.97;2.20;;;0.10;95.00;;;;;;4897075;29;20218;-71
2023/03/06 03:02:39;;;;;;;3.43;2.63;;;0.10;95.00;;;;;;4881439;29;20717;-71
2023/03/06 03:05:09;;;;;;;4.57;2.70;;;0.10;95.00;;;;;;4898165;29;20212;-74
2023/03/06 03:07:42;;;;;;;7.10;2.50;;;0.10;95.30;;;;;;4898060;29;20286;-72
2023/03/06 03:10:12;;;;;;;6.30;2.57;;;0.10;95.40;;;;;;4881230;29;20199;-71
2023/03/06 03:12:44;;;;;;;4.30;2.27;;;0.00;95.70;;;;;;4881379;29;20575;-71
2023/03/06 03:15:14;;;;;;;4.03;2.43;;;0.00;96.10;;;;;;4896848;29;20290;-71
2023/03/06 03:17:43;;;;;;;5.43;2.77;;;0.00;96.00;;;;;;4896763;29;20213;-71
2023/03/06 03:20:15;;;;;;;2.87;2.50;;;0.00;95.80;;;;;;4896712;29;20207;-72
2023/03/06 03:22:48;;;;;;;3.90;2.57;;;0.10;96.10;;;;;;4896593;29;20717;-72
2023/03/06 03:25:17;;;;;;;4.50;2.57;;;0.10;95.80;;;;;;4897759;29;20311;-72
2023/03/06 03:27:48;;;;;;;2.80;2.50;;;0.00;96.10;;;;;;4881128;29;20237;-72
2023/03/06 03:30:17;;;;;;;2.97;2.33;;;0.00;95.80;;;;;;4896695;29;20213;-74
2023/03/06 03:32:46;;;;;;;4.50;2.17;;;0.10;95.60;;;;;;4881154;29;20203;-72
2023/03/06 03:35:15;;;;;;;6.27;2.47;;;0.00;95.70;;;;;;4897772;29;20206;-73
2023/03/06 03:37:44;;;;;;;3.00;2.20;;;0.10;95.50;;;;;;4896368;29;20219;-72
2023/03/06 03:40:13;;;;;;;2.67;2.20;;;0.10;95.30;;;;;;4896503;29;20207;-71
2023/03/06 03:42:42;;;;;;;4.70;2.40;;;0.10;95.30;;;;;;4896316;29;20227;-73
2023/03/06 03:45:13;;;;;;;4.83;2.43;;;0.10;95.00;;;;;;4896422;29;20206;-72
2023/03/06 03:47:42;;;;;;;4.23;2.60;;;0.10;95.00;;;;;;4880773;29;20207;-74
2023/03/06 03:50:13;;;;;;;3.20;2.53;;;0.10;94.90;;;;;;4896329;29;20210;-73
2023/03/06 03:52:42;;;;;;;4.33;2.40;;;0.10;94.90;;;;;;4880571;29;20210;-73
2023/03/06 03:55:12;;;;;;;5.03;2.37;;;0.10;95.10;;;;;;4895900;29;20214;-73
2023/03/06 03:57:43;;;;;;;6.70;2.93;;;0.10;94.70;;;;;;4896007;29;20207;-72
2023/03/06 04:00:15;;;;;;;4.67;2.57;;;0.20;94.40;;;;;;4880554;29;20725;-70
2023/03/06 04:03:04;;;;;;;5.53;2.73;;;0.10;94.30;;;;;;4896633;29;20278;-72
2023/03/06 04:05:40;;;;;;;7.23;3.07;;;0.10;94.60;;;;;;4895849;29;20222;-70
2023/03/06 04:08:10;;;;;;;6.30;3.23;;;0.10;95.00;;;;;;4895765;29;20211;-71
2023/03/06 04:10:43;;;;;;;3.33;2.90;;;0.10;94.90;;;;;;4895782;29;20302;-70
2023/03/06 04:13:13;;;;;;;2.40;2.20;;;0.10;95.10;;;;;;4895782;29;20207;-74
2023/03/06 04:15:46;;;;;;;4.30;2.30;;;0.10;95.10;;;;;;4895746;29;20230;-70
2023/03/06 04:18:15;;;;;;;2.80;2.20;;;0.10;94.90;;;;;;4895792;29;20207;-73
2023/03/06 04:20:44;;;;;;;2.63;2.30;;;0.00;95.10;;;;;;4895842;29;20332;-72
2023/03/06 04:23:14;;;;;;;2.60;2.40;;;0.10;95.10;;;;;;4879736;29;20309;-74
2023/03/06 04:25:44;;;;;;;6.03;2.70;;;0.10;95.30;;;;;;4895426;29;20267;-72
2023/03/06 04:28:13;;;;;;;5.23;3.00;;;0.00;95.80;;;;;;4895677;29;20234;-74
2023/03/06 04:30:43;;;;;;;2.83;2.57;;;0.00;95.60;;;;;;4895494;29;20215;-73
2023/03/06 04:33:13;;;;;;;7.00;2.80;;;0.00;95.60;;;;;;4879955;29;20242;-73
2023/03/06 04:35:43;;;;;;;3.07;2.80;;;0.00;95.90;;;;;;4879831;29;20302;-72
2023/03/06 04:38:18;;;;;;;4.90;2.37;;;-0.10;96.20;;;;;;4895475;29;20210;-72
2023/03/06 04:40:48;;;;;;;3.07;2.77;;;-0.10;96.60;;;;;;4896905;29;20749;-74
2023/03/06 04:43:17;;;;;;;5.00;3.40;;;-0.10;96.20;;;;;;4896722;29;20227;-71
2023/03/06 04:45:46;;;;;;;7.47;3.27;;;-0.10;96.10;;;;;;4896736;29;20195;-72
2023/03/06 04:48:18;;;;;;;4.90;3.20;;;-0.30;97.30;;;;;;4896635;29;20192;-73
2023/03/06 04:50:47;;;;;;;4.77;3.40;;;-0.30;97.60;;;;;;4896662;29;20205;-73
2023/03/06 04:53:18;;;;;;;7.13;2.93;;;-0.20;97.10;;;;;;4896593;29;20195;-72
2023/03/06 04:55:47;;;;;;;4.40;2.70;;;-0.20;97.40;;;;;;4896479;29;20199;-73
2023/03/06 04:58:16;;;;;;;6.63;3.30;;;-0.30;97.50;;;;;;4896718;29;20195;-73
2023/03/06 05:00:45;;;;;;;6.87;3.37;;;-0.30;97.40;;;;;;4896362;29;20310;-71
2023/03/06 05:03:16;;;;;;;4.90;3.10;;;-0.30;97.50;;;;;;4896274;29;20666;-74
2023/03/06 05:05:44;;;;;;;4.37;3.10;;;-0.30;97.70;;;;;;4896327;29;20210;-74
2023/03/06 05:08:15;;;;;;;6.77;2.93;;;-0.30;97.60;;;;;;4896316;29;20234;-73
2023/03/06 05:10:44;;;;;;;4.50;3.37;;;-0.20;96.60;;;;;;4896466;29;20243;-72
2023/03/06 05:13:13;;;;;;;6.53;4.30;;;-0.20;96.00;;;;;;4896321;29;20203;-73
2023/03/06 05:15:42;;;;;;;6.80;4.27;;;-0.10;95.90;;;;;;4899825;29;20294;-74
2023/03/06 05:18:11;;;;;;;9.93;4.00;;;-0.10;95.70;;;;;;4900546;29;20618;-70
2023/03/06 05:20:41;;;;;;;8.60;5.47;;;-0.10;95.70;;;;;;4900055;29;20239;-73
2023/03/06 05:23:10;;;;;;;10.20;5.37;;;-0.10;95.80;;;;;;4899836;29;20219;-73
2023/03/06 05:25:39;;;;;;;10.63;5.87;;;-0.10;95.10;;;;;;4899669;29;20214;-71
2023/03/06 05:28:08;;;;;;;30.10;11.90;;;-0.10;95.40;;;;;;4900083;29;20674;-73
2023/03/06 05:30:38;;;;;;;12.40;6.73;;;-0.10;95.40;;;;;;4900032;29;20207;-72
2023/03/06 05:33:07;;;;;;;14.80;6.07;;;-0.10;95.30;;;;;;4900108;29;20662;-73
2023/03/06 05:35:35;;;;;;;14.10;6.70;;;-0.10;94.90;;;;;;4899921;29;20231;-74
2023/03/06 05:38:06;;;;;;;21.50;10.97;;;0.00;94.80;;;;;;4899823;29;20294;-72
2023/03/06 05:40:34;;;;;;;10.80;5.63;;;0.00;94.60;;;;;;4899994;29;20215;-73
2023/03/06 05:43:03;;;;;;;11.87;4.50;;;0.00;94.30;;;;;;4927847;29;20233;-72
2023/03/06 05:45:32;;;;;;;18.63;6.90;;;-0.10;95.00;;;;;;4934732;29;20248;-72
2023/03/06 05:48:01;;;;;;;8.67;5.23;;;-0.10;95.20;;;;;;4937467;29;20202;-73
2023/03/06 05:50:31;;;;;;;5.53;3.83;;;-0.10;95.00;;;;;;4937396;29;20197;-72
2023/03/06 05:52:59;;;;;;;6.37;3.30;;;-0.10;94.60;;;;;;4937312;29;20200;-72
2023/03/06 05:55:30;;;;;;;7.10;3.80;;;0.00;94.40;;;;;;4928604;29;20649;-73
2023/03/06 05:57:59;;;;;;;7.43;3.70;;;0.10;94.00;;;;;;4918187;29;20205;-74
2023/03/06 06:00:28;;;;;;;10.97;3.30;;;0.00;93.90;;;;;;4918201;29;20206;-74
2023/03/06 06:02:56;;;;;;;4.43;3.10;;;0.00;93.70;;;;;;4918204;29;20202;-74
2023/03/06 06:05:25;;;;;;;5.17;3.50;;;-0.10;94.10;;;;;;4918117;29;20261;-74
2023/03/06 06:07:54;;;;;;;6.43;3.50;;;0.00;93.60;;;;;;4918201;29;20608;-73
2023/03/06 06:10:23;;;;;;;7.00;3.00;;;-0.20;94.90;;;;;;4918172;29;20207;-73
2023/03/06 06:12:53;;;;;;;3.83;3.30;;;0.00;94.70;;;;;;4917999;29;20218;-73
2023/03/06 06:15:22;;;;;;;4.23;3.30;;;0.00;93.50;;;;;;4918108;29;20565;-73
2023/03/06 06:17:51;;;;;;;5.40;3.20;;;0.10;93.20;;;;;;4917251;29;20202;-73
2023/03/06 06:20:20;;;;;;;5.13;3.20;;;0.20;92.90;;;;;;4917834;29;20257;-71
2023/03/06 06:22:49;;;;;;;4.67;3.10;;;0.30;92.00;;;;;;4917737;29;20696;-72
2023/03/06 06:25:18;;;;;;;7.00;3.50;;;0.30;91.20;;;;;;4917210;29;20300;-73
2023/03/06 06:27:46;;;;;;;6.60;4.00;;;0.50;90.60;;;;;;4918047;29;20233;-74
2023/03/06 06:30:17;;;;;;;10.40;3.77;;;0.50;90.00;;;;;;4917840;29;20211;-74
2023/03/06 06:32:47;;;;;;;6.67;3.80;;;0.60;89.30;;;;;;4917756;29;20202;-74
2023/03/06 06:35:16;;;;;;;6.30;3.57;;;0.80;87.40;;;;;;4917628;29;20207;-74
2023/03/06 06:37:44;;;;;;;6.57;3.70;;;0.80;85.00;;;;;;4917551;29;20226;-74
2023/03/06 06:40:14;;;;;;;7.30;3.50;;;0.90;84.20;;;;;;4917487;29;20245;-73
2023/03/06 06:42:43;;;;;;;5.07;3.70;;;1.10;82.80;;;;;;4917797;29;20621;-73
2023/03/06 06:45:12;;;;;;;5.60;4.23;;;1.20;81.10;;;;;;4900151;29;20311;-71
2023/03/06 06:47:43;;;;;;;6.93;3.87;;;1.40;80.20;;;;;;4934370;29;20815;-74
2023/03/06 06:50:13;;;;;;;6.27;3.70;;;1.40;78.10;;;;;;4936274;29;20233;-74
2023/03/06 06:52:42;;;;;;;5.47;3.63;;;1.40;77.10;;;;;;4936530;29;20280;-74
2023/03/06 06:55:12;;;;;;;9.20;4.20;;;1.40;76.90;;;;;;4936115;29;20228;-70
2023/03/06 06:57:41;;;;;;;6.43;3.87;;;1.40;76.90;;;;;;4936291;29;20225;-72
2023/03/06 07:00:14;;;;;;;5.63;3.90;;;1.60;76.40;;;;;;4935333;29;20290;-72
2023/03/06 07:02:47;;;;;;;7.20;3.80;;;1.70;74.60;;;;;;4916553;29;20234;-73
2023/03/06 07:05:18;;;;;;;9.50;4.00;;;1.70;72.90;;;;;;4917013;29;20287;-74
2023/03/06 07:07:50;;;;;;;7.07;3.90;;;1.90;72.50;;;;;;4917059;29;20205;-74
2023/03/06 07:10:19;;;;;;;6.47;4.00;;;1.90;71.50;;;;;;4917158;29;20207;-73
2023/03/06 07:12:48;;;;;;;8.07;4.20;;;1.90;70.90;;;;;;4917031;29;20238;-74
2023/03/06 07:15:18;;;;;;;6.73;4.27;;;2.10;70.60;;;;;;4916943;29;20301;-73
2023/03/06 07:17:48;;;;;;;6.07;3.47;;;2.10;69.10;;;;;;4916921;29;20270;-72
2023/03/06 07:20:18;;;;;;;7.43;4.37;;;2.30;68.50;;;;;;4916686;29;20199;-73
2023/03/06 07:22:47;;;;;;;9.53;3.70;;;2.40;67.70;;;;;;4916590;29;20712;-73
2023/03/06 07:25:20;;;;;;;7.80;4.17;;;2.50;67.00;;;;;;4916534;29;20241;-74
2023/03/06 07:27:52;;;;;;;6.07;4.00;;;2.70;65.60;;;;;;4916928;29;20199;-74
2023/03/06 07:30:22;;;;;;;7.53;3.87;;;2.80;65.30;;;;;;4915378;29;20218;-73
2023/03/06 07:32:55;;;;;;;5.93;4.47;;;3.00;64.20;;;;;;4915554;29;20206;-74
2023/03/06 07:35:25;;;;;;;8.43;4.03;;;3.20;63.30;;;;;;4916796;29;20617;-70
2023/03/06 07:37:54;;;;;;;10.33;3.80;;;3.40;62.40;;;;;;4916203;29;20203;-72
2023/03/06 07:40:23;;;;;;;7.27;3.47;;;3.60;60.90;;;;;;4916886;29;20202;-70
2023/03/06 07:42:54;;;;;;;7.57;3.90;;;3.50;60.80;;;;;;4916823;29;20210;-74
2023/03/06 07:45:37;;;;;;;7.57;3.73;;;3.80;60.20;;;;;;4898692;29;20227;-69
2023/03/06 07:48:07;;;;;;;7.57;3.93;;;4.00;59.90;;;;;;4919146;29;20214;-69
2023/03/06 07:50:37;;;;;;;9.00;4.90;;;4.30;59.20;;;;;;4916658;29;20210;-72
2023/03/06 07:53:06;;;;;;;8.90;4.73;;;4.60;58.30;;;;;;4915619;29;20200;-70
2023/03/06 07:55:36;;;;;;;7.63;4.53;;;4.60;57.70;;;;;;4916250;29;20248;-68
2023/03/06 07:58:04;;;;;;;15.83;8.47;;;4.70;58.10;;;;;;4916160;29;20738;-71
2023/03/06 08:00:33;;;;;;;9.43;4.73;;;4.90;58.10;;;;;;4916510;29;20212;-74
2023/03/06 08:03:02;;;;;;;7.30;4.40;;;5.00;56.90;;;;;;4934950;29;20203;-73
2023/03/06 08:05:33;;;;;;;5.73;3.93;;;5.30;56.80;;;;;;4935234;29;20233;-71
2023/03/06 08:08:01;;;;;;;7.87;4.43;;;5.70;55.60;;;;;;4935192;29;20220;-70
2023/03/06 08:10:30;;;;;;;9.73;4.00;;;5.90;54.90;;;;;;4935416;29;20199;-74
2023/03/06 08:12:59;;;;;;;7.47;4.17;;;5.90;54.30;;;;;;4934979;29;20237;-72
2023/03/06 08:15:28;;;;;;;6.73;3.97;;;5.50;54.60;;;;;;4935147;29;20261;-69
2023/03/06 08:17:57;;;;;;;6.13;4.27;;;5.70;54.80;;;;;;4935236;29;20195;-71
2023/03/06 08:20:25;;;;;;;6.97;4.47;;;5.70;54.50;;;;;;4935079;29;20221;-70
2023/03/06 08:22:56;;;;;;;7.03;4.23;;;6.00;54.20;;;;;;4934951;29;20662;-67
2023/03/06 08:25:25;;;;;;;7.50;4.37;;;6.10;53.80;;;;;;4934337;29;20278;-71
2023/03/06 08:27:53;;;;;;;4.77;4.00;;;5.80;53.60;;;;;;4917474;29;20213;-69
2023/03/06 08:30:22;;;;;;;9.03;5.03;;;5.70;54.10;;;;;;4916355;29;20615;-69
2023/03/06 08:32:52;;;;;;;8.83;4.30;;;5.80;54.40;;;;;;4916105;29;20198;-69
2023/03/06 08:35:21;;;;;;;9.00;4.70;;;5.90;54.10;;;;;;4915901;29;20204;-72
2023/03/06 08:37:50;;;;;;;9.00;4.40;;;5.80;54.00;;;;;;4915977;29;20208;-70
2023/03/06 08:40:22;;;;;;;8.93;4.87;;;5.70;53.80;;;;;;4910753;29;20208;-70
2023/03/06 08:42:50;;;;;;;7.00;4.73;;;5.50;54.30;;;;;;4915674;29;20206;-71
2023/03/06 08:45:19;;;;;;;5.77;4.63;;;5.60;54.70;;;;;;4922132;29;20233;-72
2023/03/06 08:47:48;;;;;;;7.63;4.33;;;5.50;54.50;;;;;;4934739;29;20286;-74
2023/03/06 08:50:17;;;;;;;3.40;3.10;;;5.40;54.20;;;;;;4934823;29;20207;-72
2023/03/06 08:52:46;;;;;;;7.63;3.67;;;5.20;54.30;;;;;;4933838;29;20262;-72
2023/03/06 08:55:15;;;;;;;8.60;3.87;;;5.20;54.80;;;;;;4913839;29;20218;-72
2023/03/06 08:57:46;;;;;;;7.27;4.30;;;5.10;54.60;;;;;;4915404;29;20228;-72
2023/03/06 09:00:16;;;;;;;9.03;4.83;;;5.10;54.90;;;;;;4914783;29;20205;-70
2023/03/06 09:02:45;;;;;;;7.47;4.90;;;5.20;55.20;;;;;;4915686;29;20208;-70
2023/03/06 09:05:13;;;;;;;9.77;4.73;;;5.20;55.30;;;;;;4915441;29;20307;-69
2023/03/06 09:07:42;;;;;;;8.47;4.00;;;5.20;55.00;;;;;;4915824;29;20245;-69
2023/03/06 09:10:15;;;;;;;5.83;4.20;;;5.00;55.00;;;;;;4914675;29;20203;-68
2023/03/06 09:12:45;;;;;;;12.53;4.53;;;5.00;55.30;;;;;;4924499;29;20274;-69
2023/03/06 09:15:20;;;;;;;6.83;4.27;;;5.00;55.10;;;;;;4934391;29;20214;-69
2023/03/06 09:17:49;;;;;;;6.63;3.87;;;4.80;55.60;;;;;;4934708;29;20200;-70
2023/03/06 09:20:19;;;;;;;9.50;4.17;;;4.90;55.70;;;;;;4934579;29;20295;-68
2023/03/06 09:22:48;;;;;;;6.40;3.50;;;5.10;55.40;;;;;;4934692;29;20208;-70
2023/03/06 09:25:19;;;;;;;9.07;5.80;;;5.10;55.10;;;;;;4933234;29;20242;-69
2023/03/06 09:27:50;;;;;;;5.77;3.20;;;5.30;54.90;;;;;;4934543;29;20276;-70
2023/03/06 09:30:39;;;;;;;4.23;2.83;;;5.20;54.70;;;;;;4923142;29;20212;-69
2023/03/06 09:33:08;;;;;;;5.40;3.30;;;5.20;54.20;;;;;;4915471;29;20698;-69
2023/03/06 09:35:42;;;;;;;9.23;3.67;;;5.30;54.00;;;;;;4915280;29;20205;-69
2023/03/06 09:38:11;;;;;;;7.73;3.30;;;5.50;53.90;;;;;;4915367;29;20218;-70
2023/03/06 09:40:55;;;;;;;3.80;3.30;;;5.80;53.80;;;;;;4915074;29;20192;-67
2023/03/06 09:43:30;;;;;;;5.13;3.40;;;6.20;53.00;;;;;;4914727;29;20217;-71
2023/03/06 09:45:59;;;;;;;6.03;4.90;;;6.80;51.70;;;;;;4915319;29;20598;-71
2023/03/06 09:48:41;;;;;;;5.60;4.30;;;8.40;50.30;;;;;;4915473;29;20771;-71
2023/03/06 09:51:15;;;;;;;5.20;3.90;;;10.30;47.50;;;;;;4915581;29;20232;-71
2023/03/06 09:53:58;;;;;;;5.33;3.60;;;10.70;44.40;;;;;;4914735;29;20256;-73
2023/03/06 09:56:30;;;;;;;7.57;3.37;;;11.50;44.00;;;;;;4915215;29;20210;-72
2023/03/06 09:59:11;;;;;;;4.20;3.20;;;12.80;41.10;;;;;;4915590;29;20202;-72
2023/03/06 10:01:43;;;;;;;6.23;4.30;;;13.90;38.60;;;;;;4917812;29;20267;-72
2023/03/06 10:04:29;;;;;;;5.20;3.77;;;14.90;37.30;;;;;;4918807;29;20309;-69
2023/03/06 10:07:03;;;;;;;9.10;6.77;;;14.90;36.40;;;;;;4918625;29;20223;-68
2023/03/06 10:09:40;;;;;;;8.20;3.57;;;15.30;36.20;;;;;;4917858;29;20209;-68
2023/03/06 10:12:21;;;;;;;6.40;4.37;;;15.60;35.10;;;;;;4918631;29;20301;-72
2023/03/06 10:15:10;;;;;;;4.53;2.40;;;15.20;35.40;;;;;;4918499;29;20219;-68
2023/03/06 10:17:41;;;;;;;8.47;3.13;;;15.50;35.40;;;;;;4901219;29;20203;-69
2023/03/06 10:20:18;;;;;;;31.97;4.13;;;14.00;36.00;;;;;;4918355;29;20212;-69
2023/03/06 10:23:05;;;;;;;10.07;3.73;;;13.30;37.30;;;;;;4918126;29;20620;-69
2023/03/06 10:25:40;;;;;;;5.90;2.97;;;13.30;37.00;;;;;;4915953;29;20246;-69
2023/03/06 10:28:16;;;;;;;10.40;4.23;;;11.50;36.90;;;;;;4918217;29;20214;-68
2023/03/06 10:30:53;;;;;;;12.93;4.53;;;10.80;38.20;;;;;;4918129;29;20279;-70
2023/03/06 10:33:37;;;;;;;3.57;3.20;;;11.30;39.10;;;;;;4917638;29;20285;-70
2023/03/06 10:36:06;;;;;;;8.77;3.07;;;12.90;37.70;;;;;;4917400;29;20211;-69
2023/03/06 10:38:37;;;;;;;5.20;2.33;;;14.80;34.30;;;;;;4917684;29;20201;-70
2023/03/06 10:41:21;;;;;;;7.03;2.93;;;15.00;32.30;;;;;;4917707;29;20602;-69
2023/03/06 10:44:23;;;;;;;2.83;2.63;;;16.90;31.90;;;;;;4917530;29;20196;-68
2023/03/06 10:46:55;;;;;;;6.40;2.23;;;16.90;30.90;;;;;;4917230;29;20224;-69
2023/03/06 10:49:33;;;;;;;4.13;2.37;;;17.00;30.10;;;;;;4917411;29;20195;-69
2023/03/06 10:52:05;;;;;;;4.73;3.03;;;15.10;32.70;;;;;;4917343;29;20206;-71
2023/03/06 10:54:36;;;;;;;5.67;2.40;;;16.20;32.70;;;;;;4916831;29;20708;-71
2023/03/06 10:57:20;;;;;;;4.97;2.30;;;17.10;31.00;;;;;;4917316;29;20212;-70
2023/03/06 10:59:53;;;;;;;9.93;5.20;;;17.40;30.10;;;;;;4921288;29;20613;-69
2023/03/06 11:02:29;;;;;;;5.60;2.77;;;17.80;30.60;;;;;;4936185;29;20198;-70
2023/03/06 11:05:00;;;;;;;2.93;2.33;;;17.40;30.60;;;;;;4935842;29;20242;-72
2023/03/06 11:07:30;;;;;;;7.33;2.93;;;16.10;30.80;;;;;;4935742;29;20244;-69
2023/03/06 11:10:17;;;;;;;8.70;2.90;;;14.40;32.50;;;;;;4935908;29;20200;-68
2023/03/06 11:12:58;;;;;;;5.20;3.00;;;12.80;35.20;;;;;;4918616;29;20210;-69
2023/03/06 11:15:28;;;;;;;6.17;2.63;;;10.50;38.20;;;;;;4906078;29;20203;-70
2023/03/06 11:18:03;;;;;;;3.50;2.40;;;9.10;40.70;;;;;;4906485;29;20682;-70
2023/03/06 11:20:41;;;;;;;9.97;2.70;;;8.90;42.50;;;;;;4897894;29;20218;-70
2023/03/06 11:23:26;;;;;;;5.80;2.67;;;8.80;42.70;;;;;;4897345;29;20215;-68
2023/03/06 11:26:01;;;;;;;7.17;2.93;;;8.50;43.00;;;;;;4897376;29;20194;-69
2023/03/06 11:28:33;;;;;;;6.37;3.10;;;9.20;42.40;;;;;;4897697;29;20230;-69
2023/03/06 11:31:07;;;;;;;4.20;2.80;;;9.20;42.20;;;;;;4911156;29;20628;-69
2023/03/06 11:33:44;;;;;;;6.40;4.47;;;8.80;42.50;;;;;;4916527;29;20205;-69
2023/03/06 11:36:18;;;;;;;4.70;3.57;;;9.10;43.30;;;;;;4916100;29;20221;-68
2023/03/06 11:38:50;;;;;;;4.27;3.30;;;8.80;43.40;;;;;;4916543;29;20234;-70
2023/03/06 11:41:34;;;;;;;4.00;3.13;;;8.20;44.00;;;;;;4916373;29;20209;-70
2023/03/06 11:44:12;;;;;;;4.93;3.33;;;7.60;45.90;;;;;;4916447;29;20209;-69
2023/03/06 11:46:44;;;;;;;2.63;2.27;;;7.60;46.90;;;;;;4920910;29;20207;-69
2023/03/06 11:49:22;;;;;;;5.50;2.27;;;6.60;47.60;;;;;;4935191;29;20209;-71
2023/03/06 11:51:55;;;;;;;7.67;2.83;;;6.50;49.10;;;;;;4935079;29;20219;-70
2023/03/06 11:54:24;;;;;;;4.33;2.27;;;6.30;51.60;;;;;;4934944;29;20575;-70
2023/03/06 11:56:56;;;;;;;2.57;2.30;;;6.10;53.30;;;;;;4934903;29;20287;-69
2023/03/06 11:59:49;;;;;;;8.60;2.33;;;5.80;55.70;;;;;;4933970;29;20222;-70
2023/03/06 12:02:33;;;;;;;3.50;2.43;;;5.70;56.70;;;;;;4916229;29;20682;-70
2023/03/06 12:05:20;;;;;;;3.20;2.23;;;4.90;56.70;;;;;;4915844;29;20216;-70
2023/03/06 12:07:58;;;;;;;5.40;2.57;;;4.90;57.20;;;;;;4916128;29;20541;-70
2023/03/06 12:10:33;;;;;;;4.17;2.37;;;5.10;56.40;;;;;;4915759;29;20198;-70
2023/03/06 12:13:26;;;;;;;3.90;2.50;;;5.30;55.50;;;;;;4915926;29;20287;-69
2023/03/06 12:16:17;;;;;;;2.70;2.30;;;5.40;55.40;;;;;;4915551;29;20677;-71
2023/03/06 12:18:53;;;;;;;4.87;2.93;;;5.70;54.80;;;;;;4913223;29;20478;-70
2023/03/06 12:21:32;;;;;;;2.93;2.63;;;6.00;54.30;;;;;;4915691;29;20202;-70
2023/03/06 12:24:12;;;;;;;4.73;3.23;;;6.30;53.70;;;;;;4915166;29;20247;-71
2023/03/06 12:26:57;;;;;;;6.03;3.13;;;6.80;52.70;;;;;;4915577;29;20206;-69
2023/03/06 12:29:46;;;;;;;4.83;3.53;;;7.20;52.20;;;;;;4898889;29;20578;-71
2023/03/06 12:32:28;;;;;;;7.20;4.57;;;7.40;51.40;;;;;;4934463;29;20696;-71
2023/03/06 12:35:26;;;;;;;10.07;4.37;;;7.40;50.70;;;;;;4934269;29;20206;-70
2023/03/06 12:38:08;;;;;;;7.83;5.40;;;7.20;50.90;;;;;;4934621;29;20265;-73
2023/03/06 12:40:51;;;;;;;16.43;4.67;;;7.10;50.90;;;;;;4934559;29;20661;-72
2023/03/06 12:43:52;;;;;;;14.13;5.27;;;7.00;51.10;;;;;;4919365;29;20207;-73
2023/03/06 12:46:23;;;;;;;6.47;4.83;;;6.80;51.90;;;;;;4893576;29;20203;-71
2023/03/06 12:49:02;;;;;;;6.63;4.40;;;6.80;52.80;;;;;;4894324;29;20262;-70
2023/03/06 12:51:32;;;;;;;4.63;4.13;;;6.80;52.60;;;;;;4894257;29;20632;-73
2023/03/06 12:54:03;;;;;;;5.63;3.93;;;6.10;52.70;;;;;;4894416;29;20207;-72
2023/03/06 12:56:34;;;;;;;6.93;3.57;;;5.70;54.50;;;;;;4894183;29;20239;-72
2023/03/06 12:59:03;;;;;;;7.37;4.10;;;5.80;55.30;;;;;;4894432;29;20211;-72
2023/03/06 13:01:54;;;;;;;119.67;58.00;;;5.90;55.30;;;;;;4894569;29;20206;-71
2023/03/06 13:04:44;;;;;;;9.50;6.40;;;5.90;54.90;;;;;;4894341;29;20234;-70
2023/03/06 13:07:43;;;;;;;6.13;4.27;;;5.80;54.90;;;;;;4894381;29;20215;-72
2023/03/06 13:10:22;;;;;;;5.37;3.80;;;5.20;56.60;;;;;;4894060;29;20211;-71
2023/03/06 13:12:55;;;;;;;8.93;4.30;;;5.00;58.20;;;;;;4894316;29;20214;-72
2023/03/06 13:15:48;;;;;;;5.93;3.70;;;4.90;58.60;;;;;;4894076;29;20694;-72
2023/03/06 13:18:50;;;;;;;5.43;3.27;;;4.80;59.40;;;;;;4893645;29;20230;-69
2023/03/06 13:21:52;;;;;;;11.47;5.37;;;4.60;60.00;;;;;;4875231;29;20207;-72